Time;durP1;ratioP1;P1;durP2;ratioP2;P2;SDS_P1;SDS_P2;PMS_P1;PMS_P2;Temp;Humidity;BMP_temperature;BMP_pressure;BME280_temperature;BME280_humidity;BME280_pressure;Samples;Min_cycle;Max_cycle;Signal;HPM_P1;HPM_P2
2024/01/30 00:01:15;;;;;;;7.00;5.90;;;2.80;99.90;2.50;101994.00;;;;4895438;28;92243;-66
2024/01/30 00:03:41;;;;;;;14.07;5.57;;;2.70;99.90;2.40;101987.00;;;;4895368;28;100367;-65
2024/01/30 00:06:08;;;;;;;10.03;6.13;;;3.60;99.90;2.40;101985.00;;;;4894613;28;97716;-66
2024/01/30 00:08:34;;;;;;;7.83;6.10;;;2.70;99.90;2.40;101995.00;;;;4894805;28;113426;-66
2024/01/30 00:11:00;;;;;;;8.97;5.80;;;3.40;99.90;2.40;101990.00;;;;4896943;28;93244;-66
2024/01/30 00:13:26;;;;;;;8.47;6.33;;;2.60;99.90;2.30;101981.00;;;;4909325;28;93059;-67
2024/01/30 00:15:51;;;;;;;14.47;5.87;;;2.60;99.90;2.40;101990.00;;;;4892423;28;115248;-65
2024/01/30 00:18:18;;;;;;;11.83;6.87;;;2.60;99.90;2.40;101981.00;;;;4894852;28;121660;-67
2024/01/30 00:20:44;;;;;;;12.53;5.70;;;2.60;99.90;2.40;101978.00;;;;4897193;28;93303;-66
2024/01/30 00:23:09;;;;;;;9.63;6.00;;;2.70;99.90;2.40;101982.00;;;;4896434;28;109623;-67
2024/01/30 00:25:35;;;;;;;10.33;5.97;;;2.70;99.90;2.50;101981.00;;;;4894921;28;122201;-66
2024/01/30 00:28:01;;;;;;;9.83;6.33;;;2.70;99.90;2.50;101980.00;;;;4895220;28;122773;-66
2024/01/30 00:30:27;;;;;;;5.97;4.60;;;2.60;99.90;2.50;101984.00;;;;4893852;28;92915;-66
2024/01/30 00:32:53;;;;;;;20.73;6.77;;;2.80;99.90;2.60;101974.00;;;;4894623;28;107573;-66
2024/01/30 00:35:19;;;;;;;10.97;6.37;;;2.80;99.90;2.70;101972.00;;;;4895550;28;113171;-66
2024/01/30 00:37:44;;;;;;;8.93;6.30;;;3.40;99.90;2.70;101976.00;;;;4892499;28;103427;-65
2024/01/30 00:40:15;;;;;;;8.93;6.33;;;3.00;99.90;2.80;101966.00;;;;4892348;28;111487;-66
2024/01/30 00:42:44;;;;;;;13.97;7.47;;;3.70;99.90;2.90;101971.00;;;;4894920;28;93018;-66
2024/01/30 00:45:16;;;;;;;10.77;6.10;;;3.10;99.90;2.90;101980.00;;;;4893727;28;94308;-65
2024/01/30 00:47:43;;;;;;;7.03;5.20;;;3.10;99.90;2.90;101978.00;;;;4894700;28;94925;-66
2024/01/30 00:50:09;;;;;;;8.53;5.60;;;3.70;99.90;2.90;101975.00;;;;4894603;28;92074;-66
2024/01/30 00:52:35;;;;;;;8.43;5.93;;;3.20;99.90;2.90;101977.00;;;;4897296;28;93151;-66
2024/01/30 00:55:01;;;;;;;13.93;7.77;;;3.10;99.90;2.90;101987.00;;;;4895089;28;93011;-65
2024/01/30 00:57:27;;;;;;;10.70;6.03;;;3.20;99.90;2.90;101973.00;;;;4895116;28;112786;-66
2024/01/30 00:59:52;;;;;;;6.87;5.23;;;3.10;99.90;2.90;101985.00;;;;4897077;28;93008;-66
2024/01/30 01:02:18;;;;;;;8.20;6.07;;;3.10;99.90;2.90;101976.00;;;;4892449;28;107332;-65
2024/01/30 01:04:44;;;;;;;10.97;7.33;;;3.10;99.90;2.90;101967.00;;;;4894058;28;121641;-66
2024/01/30 01:07:11;;;;;;;11.47;6.30;;;3.20;99.90;2.90;101971.00;;;;4892772;28;100912;-66
2024/01/30 01:09:36;;;;;;;6.60;5.40;;;3.10;99.90;2.90;101970.00;;;;4895603;28;93365;-66
2024/01/30 01:12:03;;;;;;;10.77;6.43;;;3.10;99.90;2.90;101961.00;;;;4890529;28;92963;-66
2024/01/30 01:14:29;;;;;;;14.30;6.13;;;3.20;99.90;2.90;101975.00;;;;4893955;28;113257;-67
2024/01/30 01:16:54;;;;;;;13.20;7.00;;;3.10;99.90;2.90;101972.00;;;;4895205;28;110354;-65
2024/01/30 01:19:20;;;;;;;10.73;5.67;;;3.20;99.90;2.80;101967.00;;;;4894262;28;110260;-67
2024/01/30 01:21:46;;;;;;;8.57;5.63;;;3.10;99.90;2.80;101963.00;;;;4892908;28;108629;-66
2024/01/30 01:24:11;;;;;;;10.13;6.40;;;3.00;99.90;2.80;101972.00;;;;4890338;28;121726;-66
2024/01/30 01:26:37;;;;;;;10.93;6.23;;;3.00;99.90;2.80;101956.00;;;;4890828;28;123504;-66
2024/01/30 01:29:09;;;;;;;12.03;6.93;;;3.00;99.90;2.80;101968.00;;;;4897112;28;109778;-66
2024/01/30 01:31:43;;;;;;;7.83;5.23;;;3.00;99.90;2.80;101966.00;;;;4900305;28;92814;-65
2024/01/30 01:34:12;;;;;;;10.67;6.53;;;3.10;99.90;2.80;101968.00;;;;4896749;28;93014;-65
2024/01/30 01:36:38;;;;;;;11.57;6.63;;;3.00;99.90;2.70;101962.00;;;;4897743;28;93361;-66
2024/01/30 01:39:04;;;;;;;9.03;6.77;;;4.00;99.90;2.80;101963.00;;;;4897898;28;101855;-65
2024/01/30 01:41:33;;;;;;;11.17;6.87;;;3.00;99.90;2.80;101962.00;;;;4898159;28;92802;-67
2024/01/30 01:43:59;;;;;;;10.33;5.87;;;3.00;99.90;2.80;101954.00;;;;4899486;28;92927;-66
2024/01/30 01:46:32;;;;;;;13.93;8.00;;;3.00;99.90;2.80;101956.00;;;;4905521;28;93964;-65
2024/01/30 01:49:00;;;;;;;10.50;6.77;;;3.10;99.90;2.80;101955.00;;;;4897240;28;94070;-66
2024/01/30 01:51:28;;;;;;;13.27;7.67;;;3.10;99.90;2.80;101956.00;;;;4898654;28;102238;-67
2024/01/30 01:53:55;;;;;;;16.40;6.50;;;3.00;99.90;2.80;101958.00;;;;4894932;28;123993;-66
2024/01/30 01:56:23;;;;;;;8.60;6.80;;;3.00;99.90;2.80;101963.00;;;;4896854;28;92934;-66
2024/01/30 01:58:51;;;;;;;10.40;6.20;;;3.00;99.90;2.90;101957.00;;;;4895892;28;92806;-65
2024/01/30 02:01:19;;;;;;;9.90;6.23;;;3.10;99.90;2.90;101953.00;;;;4894554;28;92916;-65
2024/01/30 02:03:46;;;;;;;8.17;6.00;;;3.10;99.90;2.90;101947.00;;;;4895036;28;107618;-65
2024/01/30 02:06:14;;;;;;;7.77;5.97;;;3.10;99.90;2.90;101952.00;;;;4897416;28;92690;-66
2024/01/30 02:08:40;;;;;;;10.03;6.47;;;3.10;99.90;3.00;101947.00;;;;4899125;28;93003;-66
2024/01/30 02:11:06;;;;;;;8.00;6.13;;;3.10;99.90;3.00;101963.00;;;;4895627;28;107014;-67
2024/01/30 02:13:32;;;;;;;10.07;6.60;;;3.20;99.90;3.00;101936.00;;;;4896637;28;120715;-65
2024/01/30 02:15:57;;;;;;;8.27;6.13;;;3.20;99.90;3.00;101942.00;;;;4897464;28;122715;-66
2024/01/30 02:18:23;;;;;;;11.13;6.30;;;3.20;99.90;3.00;101940.00;;;;4898894;28;111785;-66
2024/01/30 02:20:50;;;;;;;8.00;6.00;;;3.20;99.90;3.10;101934.00;;;;4901718;28;93285;-65
2024/01/30 02:23:16;;;;;;;9.67;6.40;;;3.20;99.90;3.10;101941.00;;;;4899197;28;117224;-66
2024/01/30 02:25:46;;;;;;;12.53;7.07;;;3.20;99.90;3.10;101945.00;;;;4896549;28;119717;-66
2024/01/30 02:28:13;;;;;;;7.67;5.93;;;3.30;99.90;3.10;101947.00;;;;4897620;28;92451;-66
2024/01/30 02:30:40;;;;;;;9.43;6.43;;;3.30;99.90;3.10;101947.00;;;;4896982;28;95805;-66
2024/01/30 02:33:06;;;;;;;11.80;6.63;;;3.40;99.90;3.10;101947.00;;;;4895918;28;92821;-66
2024/01/30 02:35:31;;;;;;;11.47;5.90;;;3.40;99.90;3.10;101933.00;;;;4894484;28;94201;-67
2024/01/30 02:37:57;;;;;;;8.10;5.37;;;3.30;99.90;3.10;101942.00;;;;4897482;28;93033;-66
2024/01/30 02:40:23;;;;;;;9.10;5.50;;;3.30;99.90;3.10;101947.00;;;;4897061;28;108845;-67
2024/01/30 02:42:48;;;;;;;12.40;6.57;;;4.20;99.90;3.10;101937.00;;;;4895025;28;122939;-66
2024/01/30 02:45:14;;;;;;;8.87;5.93;;;4.40;99.90;3.10;101935.00;;;;4895584;28;121373;-66
2024/01/30 02:47:40;;;;;;;10.67;5.83;;;3.30;99.90;3.10;101931.00;;;;4896664;28;111645;-66
2024/01/30 02:50:06;;;;;;;9.70;6.53;;;3.30;99.90;3.10;101934.00;;;;4892899;28;93137;-67
2024/01/30 02:52:32;;;;;;;11.93;6.87;;;3.40;99.90;3.10;101938.00;;;;4900329;28;111490;-65
2024/01/30 02:54:58;;;;;;;12.73;5.93;;;3.30;99.90;3.10;101939.00;;;;4896457;28;92697;-66
2024/01/30 02:57:24;;;;;;;10.60;6.77;;;3.30;99.90;3.10;101932.00;;;;4898831;28;109643;-67
2024/01/30 02:59:49;;;;;;;12.03;5.83;;;3.30;99.90;3.10;101940.00;;;;4892357;28;108684;-66
2024/01/30 03:02:15;;;;;;;9.27;6.27;;;3.30;99.90;3.10;101939.00;;;;4909858;28;122470;-67
2024/01/30 03:04:42;;;;;;;8.07;6.20;;;3.50;99.90;3.10;101943.00;;;;4893211;28;122473;-66
2024/01/30 03:07:08;;;;;;;8.00;6.50;;;3.30;99.90;3.10;101953.00;;;;4897642;28;92909;-65
2024/01/30 03:09:33;;;;;;;5.97;5.23;;;3.40;99.90;3.10;101950.00;;;;4894776;28;93091;-66
2024/01/30 03:11:59;;;;;;;5.57;4.73;;;3.30;99.90;3.10;101951.00;;;;4892330;28;114804;-65
2024/01/30 03:14:25;;;;;;;8.93;6.93;;;4.50;99.90;3.10;101941.00;;;;4893228;28;120945;-67
2024/01/30 03:16:50;;;;;;;12.57;5.93;;;3.30;99.90;3.10;101943.00;;;;4894921;28;110682;-65
2024/01/30 03:19:16;;;;;;;6.97;6.23;;;3.40;99.90;3.20;101938.00;;;;4896567;28;93296;-65
2024/01/30 03:21:42;;;;;;;16.80;6.33;;;3.30;99.90;3.20;101934.00;;;;4899048;28;93707;-66
2024/01/30 03:24:09;;;;;;;10.53;5.90;;;3.40;99.90;3.20;101944.00;;;;4891149;28;122159;-67
2024/01/30 03:26:34;;;;;;;9.70;6.73;;;3.40;99.90;3.20;101940.00;;;;4894713;28;93263;-65
2024/01/30 03:29:00;;;;;;;11.07;5.87;;;3.40;99.90;3.20;101945.00;;;;4894402;28;107850;-66
2024/01/30 03:31:26;;;;;;;10.87;6.63;;;3.40;99.90;3.10;101942.00;;;;4895949;28;121705;-67
2024/01/30 03:33:51;;;;;;;12.03;6.43;;;3.50;99.90;3.10;101941.00;;;;4891735;28;120938;-66
2024/01/30 03:36:17;;;;;;;16.70;7.43;;;3.50;99.90;3.20;101945.00;;;;4895064;28;109386;-67
2024/01/30 03:38:43;;;;;;;10.97;6.43;;;3.40;99.90;3.20;101938.00;;;;4894184;28;92923;-66
2024/01/30 03:41:09;;;;;;;8.13;5.67;;;3.30;99.90;3.10;101935.00;;;;4896457;28;119731;-67
2024/01/30 03:43:35;;;;;;;12.50;7.40;;;3.30;99.90;3.10;101928.00;;;;4893661;28;93051;-66
2024/01/30 03:46:02;;;;;;;9.97;6.40;;;3.40;99.90;3.10;101930.00;;;;4896161;28;101835;-67
2024/01/30 03:48:29;;;;;;;10.93;6.43;;;3.50;99.90;3.10;101922.00;;;;4894703;28;94100;-65
2024/01/30 03:50:55;;;;;;;13.77;5.67;;;3.30;99.90;3.10;101926.00;;;;4892163;28;123761;-65
2024/01/30 03:53:21;;;;;;;11.03;6.83;;;3.30;99.90;3.10;101924.00;;;;4893650;28;122760;-67
2024/01/30 03:55:47;;;;;;;9.23;6.13;;;3.30;99.90;3.10;101925.00;;;;4893853;28;100550;-66
2024/01/30 03:58:12;;;;;;;12.67;6.27;;;3.30;99.90;3.10;101925.00;;;;4892043;28;107288;-65
2024/01/30 04:00:38;;;;;;;9.17;6.43;;;3.30;99.90;3.10;101921.00;;;;4893631;28;121657;-65
2024/01/30 04:03:04;;;;;;;9.03;5.47;;;3.20;99.90;3.00;101915.00;;;;4893235;28;104967;-67
2024/01/30 04:05:30;;;;;;;12.10;6.20;;;3.30;99.90;3.00;101919.00;;;;4895049;28;93523;-65
2024/01/30 04:07:56;;;;;;;9.70;5.37;;;3.30;99.90;3.00;101920.00;;;;4896182;28;92915;-68
2024/01/30 04:10:22;;;;;;;8.33;5.73;;;3.30;99.90;3.00;101914.00;;;;4891374;28;99286;-67
2024/01/30 04:12:47;;;;;;;9.77;6.77;;;3.30;99.90;2.90;101920.00;;;;4899655;28;93911;-66
2024/01/30 04:15:13;;;;;;;9.20;6.40;;;3.20;99.90;2.90;101919.00;;;;4892664;28;111399;-66
2024/01/30 04:17:39;;;;;;;8.63;6.23;;;3.70;99.90;2.90;101919.00;;;;4894417;28;93394;-65
2024/01/30 04:20:06;;;;;;;6.57;5.60;;;3.10;99.90;2.90;101903.00;;;;4895339;28;116027;-67
2024/01/30 04:22:32;;;;;;;9.90;6.27;;;3.20;99.90;2.90;101915.00;;;;4898860;28;101064;-66
2024/01/30 04:24:57;;;;;;;11.00;6.13;;;3.20;99.90;2.90;101910.00;;;;4897699;28;109696;-66
2024/01/30 04:27:23;;;;;;;8.17;5.93;;;3.10;99.90;2.90;101918.00;;;;4892869;28;108142;-66
2024/01/30 04:29:49;;;;;;;9.07;6.17;;;3.10;99.90;2.80;101900.00;;;;4895642;28;122045;-66
2024/01/30 04:32:15;;;;;;;7.60;5.97;;;3.10;99.90;2.90;101907.00;;;;4892470;28;121404;-66
2024/01/30 04:34:40;;;;;;;8.53;6.13;;;3.10;99.90;2.90;101913.00;;;;4891638;28;109275;-67
2024/01/30 04:37:06;;;;;;;9.33;6.37;;;3.10;99.90;2.90;101912.00;;;;4894076;28;107859;-65
2024/01/30 04:39:33;;;;;;;13.47;6.50;;;3.10;99.90;2.80;101904.00;;;;4894509;28;93684;-67
2024/01/30 04:41:59;;;;;;;11.57;7.07;;;3.40;99.90;2.80;101905.00;;;;4905298;28;122456;-65
2024/01/30 04:44:25;;;;;;;8.50;6.67;;;3.10;99.90;2.80;101915.00;;;;4893827;28;92897;-66
2024/01/30 04:46:50;;;;;;;9.53;6.60;;;3.00;99.90;2.70;101915.00;;;;4894660;28;107228;-66
2024/01/30 04:49:16;;;;;;;8.47;5.47;;;3.00;99.90;2.70;101911.00;;;;4892120;28;121385;-66
2024/01/30 04:51:42;;;;;;;6.97;5.33;;;3.00;99.90;2.70;101908.00;;;;4894342;28;121339;-65
2024/01/30 04:54:07;;;;;;;6.97;5.53;;;3.30;99.90;2.70;101902.00;;;;4892749;28;109912;-66
2024/01/30 04:56:34;;;;;;;11.00;6.70;;;3.00;99.90;2.70;101895.00;;;;4892792;28;97023;-66
2024/01/30 04:59:00;;;;;;;6.80;5.93;;;2.90;99.90;2.70;101917.00;;;;4892038;28;93891;-67
2024/01/30 05:01:25;;;;;;;6.33;4.60;;;3.00;99.90;2.60;101909.00;;;;4893026;28;93894;-66
2024/01/30 05:03:51;;;;;;;8.20;6.03;;;2.90;99.90;2.60;101910.00;;;;4897122;28;110421;-67
2024/01/30 05:06:27;;;;;;;7.50;5.97;;;2.90;99.90;2.60;101903.00;;;;4907997;28;93066;-66
2024/01/30 05:08:53;;;;;;;10.43;6.87;;;2.80;99.90;2.60;101903.00;;;;4895767;28;106431;-66
2024/01/30 05:11:18;;;;;;;9.83;5.70;;;2.90;99.90;2.60;101899.00;;;;4897058;28;112364;-66
2024/01/30 05:13:44;;;;;;;10.03;5.70;;;2.80;99.90;2.50;101905.00;;;;4896945;28;109760;-67
2024/01/30 05:16:10;;;;;;;7.63;5.63;;;3.50;99.90;2.50;101902.00;;;;4898505;28;93692;-66
2024/01/30 05:18:36;;;;;;;6.83;6.10;;;2.80;99.90;2.50;101896.00;;;;4899889;28;122199;-66
2024/01/30 05:21:03;;;;;;;12.73;6.40;;;2.70;99.90;2.40;101894.00;;;;4896028;28;122282;-66
2024/01/30 05:23:29;;;;;;;8.13;5.53;;;2.70;99.90;2.40;101894.00;;;;4899041;28;93380;-66
2024/01/30 05:25:54;;;;;;;12.83;6.23;;;2.70;99.90;2.30;101901.00;;;;4898745;28;108504;-66
2024/01/30 05:28:20;;;;;;;13.63;7.03;;;2.60;99.90;2.30;101895.00;;;;4894093;28;124417;-67
2024/01/30 05:30:46;;;;;;;13.93;5.97;;;2.60;99.90;2.30;101900.00;;;;4896511;28;121456;-67
2024/01/30 05:33:12;;;;;;;6.53;5.73;;;2.60;99.90;2.20;101903.00;;;;4896511;28;110650;-66
2024/01/30 05:35:38;;;;;;;10.77;6.40;;;2.50;99.90;2.20;101892.00;;;;4898048;28;94007;-66
2024/01/30 05:38:04;;;;;;;9.33;5.53;;;2.50;99.90;2.20;101896.00;;;;4895864;28;124102;-66
2024/01/30 05:40:30;;;;;;;15.93;6.27;;;2.40;99.90;2.10;101899.00;;;;4898479;28;121999;-66
2024/01/30 05:43:01;;;;;;;9.30;6.00;;;1.90;99.90;2.10;101906.00;;;;4898496;28;92628;-66
2024/01/30 05:45:27;;;;;;;13.43;5.67;;;2.50;99.90;2.00;101908.00;;;;4901158;28;92753;-67
2024/01/30 05:47:53;;;;;;;10.00;6.87;;;2.40;99.90;2.00;101910.00;;;;4895519;28;121887;-66
2024/01/30 05:50:20;;;;;;;6.43;5.60;;;2.30;99.90;1.90;101908.00;;;;4897099;28;115001;-67
2024/01/30 05:52:45;;;;;;;7.93;5.80;;;2.30;99.90;1.90;101901.00;;;;4895418;28;93076;-66
2024/01/30 05:55:12;;;;;;;12.27;6.07;;;2.20;99.90;1.80;101904.00;;;;4893426;28;109343;-67
2024/01/30 05:57:38;;;;;;;9.33;6.00;;;2.10;99.90;1.70;101902.00;;;;4907952;28;93159;-66
2024/01/30 06:00:07;;;;;;;14.37;7.10;;;2.00;99.90;1.70;101910.00;;;;4899001;28;113122;-66
2024/01/30 06:02:33;;;;;;;10.73;6.67;;;2.10;99.90;1.60;101898.00;;;;4894192;28;92883;-66
2024/01/30 06:04:58;;;;;;;12.37;6.60;;;2.00;99.90;1.50;101907.00;;;;4896011;28;97306;-66
2024/01/30 06:07:24;;;;;;;9.77;5.53;;;1.80;99.90;1.50;101898.00;;;;4898287;28;121239;-66
2024/01/30 06:09:50;;;;;;;14.43;7.10;;;1.80;99.90;1.40;101892.00;;;;4895972;28;112032;-66
2024/01/30 06:12:15;;;;;;;13.93;7.40;;;1.70;99.90;1.30;101891.00;;;;4901205;28;92999;-66
2024/01/30 06:14:42;;;;;;;10.87;6.37;;;2.70;99.90;1.30;101898.00;;;;4894887;28;107219;-66
2024/01/30 06:17:08;;;;;;;10.00;7.17;;;1.90;99.90;1.20;101883.00;;;;4895595;28;94395;-67
2024/01/30 06:19:34;;;;;;;12.13;7.37;;;1.60;99.90;1.20;101885.00;;;;4911823;28;112724;-67
2024/01/30 06:22:00;;;;;;;14.50;7.80;;;1.60;99.90;1.20;101884.00;;;;4894989;28;101536;-67
2024/01/30 06:24:26;;;;;;;24.37;8.30;;;1.50;99.90;1.10;101889.00;;;;4897730;28;92904;-66
2024/01/30 06:26:51;;;;;;;12.57;8.93;;;1.50;99.90;1.10;101883.00;;;;4895128;28;123802;-67
2024/01/30 06:29:17;;;;;;;14.80;8.13;;;1.50;99.90;1.10;101889.00;;;;4894587;28;121644;-67
2024/01/30 06:31:43;;;;;;;12.30;9.23;;;1.30;99.90;1.10;101881.00;;;;4899582;28;110498;-67
2024/01/30 06:34:09;;;;;;;17.47;10.83;;;1.40;99.90;1.20;101885.00;;;;4899939;28;92855;-67
2024/01/30 06:36:35;;;;;;;11.00;7.27;;;1.50;99.90;1.20;101894.00;;;;4894225;28;94126;-67
2024/01/30 06:39:02;;;;;;;14.27;9.50;;;1.40;99.90;1.30;101898.00;;;;4895842;28;94010;-67
2024/01/30 06:41:28;;;;;;;15.97;10.33;;;1.70;99.90;1.30;101887.00;;;;4899100;28;93084;-67
2024/01/30 06:43:54;;;;;;;27.20;15.90;;;1.60;99.90;1.30;101893.00;;;;4901322;28;93234;-67
2024/01/30 06:46:19;;;;;;;28.10;16.57;;;1.60;99.90;1.40;101886.00;;;;4895425;28;123346;-67
2024/01/30 06:48:45;;;;;;;23.37;11.70;;;2.30;99.90;1.50;101890.00;;;;4893688;28;121418;-67
2024/01/30 06:51:12;;;;;;;17.13;9.83;;;1.60;99.90;1.50;101888.00;;;;4896847;28;113508;-67
2024/01/30 06:53:37;;;;;;;18.10;9.47;;;1.80;99.90;1.60;101894.00;;;;4909849;28;92859;-66
2024/01/30 06:56:04;;;;;;;28.13;16.43;;;1.90;99.90;1.60;101878.00;;;;4896679;28;110019;-65
2024/01/30 06:58:29;;;;;;;33.70;15.57;;;1.90;99.90;1.70;101888.00;;;;4897453;28;108773;-67
2024/01/30 07:00:56;;;;;;;22.93;12.97;;;2.00;99.90;1.70;101881.00;;;;4898858;28;112996;-66
2024/01/30 07:03:22;;;;;;;19.67;11.17;;;2.00;99.90;1.80;101883.00;;;;4893413;28;108144;-64
2024/01/30 07:05:48;;;;;;;16.90;9.07;;;2.30;99.90;1.90;101883.00;;;;4900333;28;93467;-66
2024/01/30 07:08:17;;;;;;;20.10;10.40;;;2.00;99.90;2.00;101890.00;;;;4897876;28;93846;-66
2024/01/30 07:10:45;;;;;;;10.60;7.07;;;2.20;99.90;2.00;101894.00;;;;4898788;28;92964;-66
2024/01/30 07:13:11;;;;;;;11.13;7.27;;;2.20;99.90;2.20;101897.00;;;;4894377;28;108716;-66
2024/01/30 07:15:37;;;;;;;8.17;6.37;;;2.40;99.90;2.30;101887.00;;;;4898910;28;93519;-67
2024/01/30 07:18:04;;;;;;;13.63;7.10;;;2.50;99.90;2.50;101892.00;;;;4897360;28;92870;-67
2024/01/30 07:20:31;;;;;;;8.83;5.57;;;2.70;99.90;2.70;101895.00;;;;4897167;28;92160;-68
2024/01/30 07:22:58;;;;;;;8.97;6.23;;;2.80;99.90;2.80;101898.00;;;;4911684;28;93030;-67
2024/01/30 07:25:27;;;;;;;9.50;6.17;;;2.80;99.90;3.00;101906.00;;;;4896338;28;94012;-67
2024/01/30 07:27:56;;;;;;;8.17;6.23;;;4.20;99.90;3.20;101893.00;;;;4896994;28;94159;-66
2024/01/30 07:30:23;;;;;;;9.73;5.30;;;3.40;99.90;3.40;101896.00;;;;4892877;28;92956;-66
2024/01/30 07:32:49;;;;;;;9.40;5.73;;;3.50;99.90;3.50;101895.00;;;;4906668;28;93096;-66
2024/01/30 07:35:15;;;;;;;16.77;6.03;;;3.70;99.90;3.70;101893.00;;;;4895833;28;122843;-67
2024/01/30 07:37:40;;;;;;;5.47;4.60;;;4.00;99.90;3.80;101890.00;;;;4892612;28;93098;-66
2024/01/30 07:40:07;;;;;;;9.17;5.43;;;3.90;99.90;3.90;101891.00;;;;4899820;28;109943;-66
2024/01/30 07:42:33;;;;;;;7.80;5.03;;;4.10;99.90;4.00;101894.00;;;;4897326;28;95124;-66
2024/01/30 07:45:00;;;;;;;10.73;5.70;;;4.20;99.90;4.20;101900.00;;;;4898756;28;93154;-66
2024/01/30 07:47:25;;;;;;;8.63;5.90;;;4.60;99.90;4.40;101886.00;;;;4894886;28;92904;-65
2024/01/30 07:49:51;;;;;;;8.83;5.23;;;4.50;99.90;4.50;101885.00;;;;4896428;28;109400;-66
2024/01/30 07:52:17;;;;;;;7.27;4.57;;;4.60;99.90;4.60;101896.00;;;;4895751;28;94121;-66
2024/01/30 07:54:43;;;;;;;8.83;5.50;;;4.70;99.90;4.70;101885.00;;;;4897583;28;121000;-66
2024/01/30 07:57:08;;;;;;;10.53;5.23;;;5.50;99.90;4.70;101887.00;;;;4893367;28;121879;-66
2024/01/30 07:59:34;;;;;;;5.43;4.47;;;5.70;99.90;4.80;101887.00;;;;4899674;28;110507;-66
2024/01/30 08:02:00;;;;;;;10.30;4.63;;;6.00;99.90;4.80;101886.00;;;;4895144;28;92906;-66
2024/01/30 08:04:25;;;;;;;6.17;4.83;;;5.00;99.90;4.90;101889.00;;;;4895930;28;122318;-66
2024/01/30 08:06:51;;;;;;;7.87;4.17;;;5.10;99.90;5.00;101893.00;;;;4894486;28;122782;-67
2024/01/30 08:09:17;;;;;;;6.83;5.30;;;5.00;99.90;5.00;101890.00;;;;4893620;28;108664;-67
2024/01/30 08:11:42;;;;;;;9.73;5.73;;;5.10;99.90;5.10;101888.00;;;;4894836;28;107770;-66
2024/01/30 08:14:08;;;;;;;16.43;5.23;;;5.20;99.90;5.20;101884.00;;;;4891110;28;121664;-66
2024/01/30 08:16:34;;;;;;;7.13;4.97;;;6.30;99.90;5.30;101885.00;;;;4895177;28;94014;-66
2024/01/30 08:19:00;;;;;;;8.73;4.30;;;5.60;99.90;5.40;101888.00;;;;4900314;28;109607;-66
2024/01/30 08:21:26;;;;;;;7.13;4.67;;;5.60;99.90;5.60;101901.00;;;;4911590;28;93128;-66
2024/01/30 08:23:52;;;;;;;7.70;5.30;;;5.60;99.90;5.80;101897.00;;;;4893529;28;123289;-66
2024/01/30 08:26:17;;;;;;;6.37;4.50;;;6.10;99.90;6.00;101899.00;;;;4894528;28;93919;-66
2024/01/30 08:28:43;;;;;;;5.30;4.33;;;6.10;99.90;6.10;101901.00;;;;4895090;28;110489;-66
2024/01/30 08:31:12;;;;;;;11.73;5.10;;;7.10;99.90;6.30;101904.00;;;;4901106;28;107097;-67
2024/01/30 08:33:37;;;;;;;10.73;5.40;;;6.50;99.90;6.40;101899.00;;;;4897406;28;92808;-66
2024/01/30 08:36:03;;;;;;;8.40;4.90;;;6.60;99.90;6.50;101895.00;;;;4891636;28;122362;-66
2024/01/30 08:38:29;;;;;;;8.53;4.97;;;6.90;99.90;6.50;101905.00;;;;4894366;28;93104;-66
2024/01/30 08:40:55;;;;;;;13.57;6.17;;;7.40;99.90;6.60;101907.00;;;;4891091;28;107802;-66
2024/01/30 08:43:21;;;;;;;7.17;5.23;;;7.30;99.90;6.70;101911.00;;;;4895096;28;114476;-66
2024/01/30 08:45:47;;;;;;;11.60;5.77;;;6.90;99.60;6.70;101919.00;;;;4894041;28;122018;-66
2024/01/30 08:48:12;;;;;;;8.40;5.63;;;6.90;99.80;6.80;101928.00;;;;4894576;28;111579;-66
2024/01/30 08:50:38;;;;;;;10.73;5.07;;;6.90;99.80;6.90;101928.00;;;;4893837;28;93025;-67
2024/01/30 08:53:04;;;;;;;6.60;4.30;;;7.00;99.80;7.00;101925.00;;;;4895714;28;123830;-66
2024/01/30 08:55:30;;;;;;;10.63;4.90;;;7.20;99.40;7.10;101926.00;;;;4893386;28;109896;-67
2024/01/30 08:57:56;;;;;;;7.37;4.33;;;7.20;98.90;7.20;101928.00;;;;4894276;28;108873;-67
2024/01/30 09:00:22;;;;;;;10.70;6.07;;;7.40;98.00;7.20;101925.00;;;;4893582;28;94261;-66
2024/01/30 09:02:47;;;;;;;7.73;4.80;;;7.40;97.90;7.20;101943.00;;;;4896725;28;118758;-67
2024/01/30 09:05:13;;;;;;;7.03;5.70;;;7.30;97.60;7.20;101927.00;;;;4895129;28;122069;-66
2024/01/30 09:07:39;;;;;;;10.50;5.43;;;7.40;97.40;7.20;101923.00;;;;4897230;28;93120;-66
2024/01/30 09:10:05;;;;;;;7.73;4.47;;;7.30;97.40;7.20;101941.00;;;;4893277;28;93077;-67
2024/01/30 09:12:31;;;;;;;8.80;5.57;;;7.50;97.40;7.20;101938.00;;;;4890293;28;114807;-66
2024/01/30 09:14:57;;;;;;;11.80;5.60;;;7.40;97.00;7.20;101922.00;;;;4892213;28;93416;-66
2024/01/30 09:17:22;;;;;;;12.90;5.40;;;7.30;96.70;7.20;101929.00;;;;4897307;28;93340;-66
2024/01/30 09:19:48;;;;;;;5.47;4.93;;;7.30;96.70;7.20;101928.00;;;;4898667;28;92920;-66
2024/01/30 09:22:14;;;;;;;8.00;5.23;;;7.40;96.70;7.20;101919.00;;;;4895646;28;120542;-66
2024/01/30 09:24:40;;;;;;;6.87;4.87;;;7.30;96.20;7.20;101904.00;;;;4893075;28;121742;-67
2024/01/30 09:27:06;;;;;;;9.20;5.07;;;7.60;95.80;7.10;101903.00;;;;4892188;28;108380;-66
2024/01/30 09:29:34;;;;;;;7.47;4.57;;;7.40;95.80;7.10;101911.00;;;;4892840;28;94025;-67
2024/01/30 09:32:00;;;;;;;10.53;6.03;;;7.30;95.70;7.20;101918.00;;;;4893962;28;94948;-66
2024/01/30 09:34:25;;;;;;;13.13;5.47;;;7.40;95.70;7.10;101902.00;;;;4894205;28;114796;-66
2024/01/30 09:36:51;;;;;;;7.17;5.30;;;7.30;95.40;7.20;101893.00;;;;4892792;28;110480;-66
2024/01/30 09:39:17;;;;;;;7.13;4.67;;;7.20;95.30;7.20;101907.00;;;;4894630;28;108277;-67
2024/01/30 09:41:52;;;;;;;8.57;5.17;;;7.40;95.20;7.20;101906.00;;;;4897331;28;94009;-66
2024/01/30 09:44:20;;;;;;;14.23;5.30;;;7.30;95.10;7.30;101915.00;;;;4908748;28;113456;-66
2024/01/30 09:46:50;;;;;;;12.27;4.80;;;7.70;95.10;7.30;101909.00;;;;4907517;28;92406;-67
2024/01/30 09:49:17;;;;;;;6.43;4.80;;;7.40;94.90;7.30;101901.00;;;;4893983;28;93067;-67
2024/01/30 09:51:45;;;;;;;8.10;5.47;;;7.50;94.50;7.40;101907.00;;;;4898815;28;94151;-66
2024/01/30 09:54:13;;;;;;;8.33;5.03;;;7.60;94.40;7.40;101907.00;;;;4897457;28;93896;-67
2024/01/30 09:56:39;;;;;;;7.73;5.13;;;7.50;94.40;7.50;101909.00;;;;4895667;28;93038;-66
2024/01/30 09:59:05;;;;;;;7.37;5.37;;;7.90;94.50;7.50;101909.00;;;;4896744;28;106602;-67
2024/01/30 10:01:31;;;;;;;10.70;5.10;;;7.60;94.10;7.60;101909.00;;;;4896673;28;122790;-66
2024/01/30 10:03:57;;;;;;;11.80;5.50;;;7.70;94.20;7.70;101910.00;;;;4910695;28;95653;-67
2024/01/30 10:06:25;;;;;;;6.97;4.73;;;7.80;94.30;7.80;101923.00;;;;4903430;28;110498;-66
2024/01/30 10:08:50;;;;;;;9.17;5.67;;;7.80;94.30;7.90;101923.00;;;;4898576;28;93665;-66
2024/01/30 10:11:16;;;;;;;7.97;4.37;;;8.00;93.90;8.00;101913.00;;;;4894820;28;122571;-66
2024/01/30 10:13:42;;;;;;;5.23;4.73;;;8.00;93.70;8.10;101913.00;;;;4900806;28;121646;-67
2024/01/30 10:16:07;;;;;;;7.60;5.60;;;8.20;93.50;8.30;101902.00;;;;4894734;28;108951;-67
2024/01/30 10:18:33;;;;;;;9.60;5.03;;;8.30;93.60;8.50;101908.00;;;;4898760;28;93815;-66
2024/01/30 10:20:59;;;;;;;7.20;5.97;;;8.50;93.00;8.60;101910.00;;;;4899896;28;122987;-67
2024/01/30 10:23:25;;;;;;;9.10;5.23;;;8.70;92.30;8.70;101913.00;;;;4898889;28;121732;-66
2024/01/30 10:25:54;;;;;;;9.50;6.10;;;8.70;92.10;8.80;101907.00;;;;4894957;28;109801;-66
2024/01/30 10:28:21;;;;;;;11.27;5.93;;;8.80;91.90;8.90;101888.00;;;;4898087;28;108129;-66
2024/01/30 10:30:47;;;;;;;8.13;5.47;;;8.90;91.50;9.10;101895.00;;;;4896318;28;94578;-67
2024/01/30 10:33:12;;;;;;;11.87;4.90;;;9.10;91.50;9.10;101884.00;;;;4906939;28;119094;-66
2024/01/30 10:35:38;;;;;;;5.73;5.17;;;9.10;90.80;9.20;101885.00;;;;4894545;28;110421;-66
2024/01/30 10:38:07;;;;;;;11.13;5.77;;;9.20;90.80;9.20;101872.00;;;;4894283;28;110369;-66
2024/01/30 10:40:35;;;;;;;7.87;5.57;;;9.30;90.40;9.20;101876.00;;;;4907791;28;123807;-66
2024/01/30 10:43:02;;;;;;;9.83;5.13;;;9.20;89.90;9.20;101879.00;;;;4894869;28;120262;-66
2024/01/30 10:45:28;;;;;;;7.60;4.73;;;9.30;90.10;9.30;101878.00;;;;4906073;28;93044;-66
2024/01/30 10:47:58;;;;;;;12.33;4.50;;;9.30;90.00;9.30;101875.00;;;;4913307;28;93156;-67
2024/01/30 10:50:25;;;;;;;6.83;4.70;;;9.30;89.70;9.40;101882.00;;;;4892901;28;93996;-67